UAL5056 KBOS-CYUL
Flight info
| Callsign | UAL5056 |
|---|---|
| Flight time | 1h 6m |
| Altitude | 30000 |
| Route | HYLND7 HYLND DCT LATTS CARTR5 |
| Aircraft | B739/M-SDE2E3FGHIRWXY/LB1 |
Departure
| Time | 2026-05-05 22:55 |
|---|---|
| Airport | Boston Logan International Airport (KBOS) |
Arrival
| Time | 2026-05-06 00:02 |
|---|---|
| Airport | Montreal / Pierre Elliott Trudeau International Airport (CYUL) |
| Time | Latitude | Longitude | Altitude | Speed | Heading |
|---|---|---|---|---|---|
| 2026-05-05 22:25 | 42.36616 | -71.01470 | 25 ft | 0 kts | 216° |
| 2026-05-05 22:40 | 42.36633 | -71.01455 | 27 ft | 3 kts | 213° |
| 2026-05-05 22:40 | 42.36650 | -71.01442 | 27 ft | 3 kts | 194° |
| 2026-05-05 22:40 | 42.36668 | -71.01436 | 29 ft | 1 kts | 157° |
| 2026-05-05 22:41 | 42.36673 | -71.01440 | 28 ft | 0 kts | 69° |
| 2026-05-05 22:47 | 42.36673 | -71.01439 | 28 ft | 2 kts | 69° |
| 2026-05-05 22:48 | 42.36695 | -71.01355 | 25 ft | 13 kts | 75° |
| 2026-05-05 22:48 | 42.36708 | -71.01299 | 25 ft | 10 kts | 62° |
| 2026-05-05 22:48 | 42.36755 | -71.01260 | 27 ft | 3 kts | 359° |
| 2026-05-05 22:48 | 42.36783 | -71.01272 | 26 ft | 8 kts | 336° |
| 2026-05-05 22:49 | 42.36843 | -71.01267 | 27 ft | 10 kts | 32° |
| 2026-05-05 22:49 | 42.36907 | -71.01196 | 26 ft | 12 kts | 41° |
| 2026-05-05 22:49 | 42.36973 | -71.01125 | 26 ft | 12 kts | 33° |
| 2026-05-05 22:49 | 42.37045 | -71.01072 | 26 ft | 12 kts | 26° |
| 2026-05-05 22:50 | 42.37121 | -71.01022 | 26 ft | 13 kts | 26° |
| 2026-05-05 22:50 | 42.37201 | -71.00969 | 27 ft | 12 kts | 26° |
| 2026-05-05 22:50 | 42.37221 | -71.00956 | 26 ft | 0 kts | 26° |
| 2026-05-05 22:50 | 42.37222 | -71.00955 | 26 ft | 1 kts | 26° |
| 2026-05-05 22:51 | 42.37228 | -71.00951 | 28 ft | 1 kts | 26° |
| 2026-05-05 22:51 | 42.37234 | -71.00947 | 27 ft | 2 kts | 26° |
| 2026-05-05 22:51 | 42.37312 | -71.00902 | 24 ft | 20 kts | 21° |
| 2026-05-05 22:51 | 42.37448 | -71.00835 | 25 ft | 20 kts | 20° |
| 2026-05-05 22:52 | 42.37465 | -71.00826 | 26 ft | 0 kts | 20° |
| 2026-05-05 22:53 | 42.37489 | -71.00814 | 27 ft | 9 kts | 20° |
| 2026-05-05 22:53 | 42.37563 | -71.00778 | 27 ft | 13 kts | 19° |
| 2026-05-05 22:53 | 42.37660 | -71.00732 | 26 ft | 16 kts | 19° |
| 2026-05-05 22:53 | 42.37766 | -71.00681 | 26 ft | 16 kts | 19° |
| 2026-05-05 22:54 | 42.37824 | -71.00640 | 27 ft | 12 kts | 47° |
| 2026-05-05 22:54 | 42.37823 | -71.00536 | 25 ft | 11 kts | 123° |
| 2026-05-05 22:54 | 42.37752 | -71.00501 | 25 ft | 11 kts | 187° |
| 2026-05-05 22:54 | 42.37679 | -71.00526 | 26 ft | 11 kts | 196° |
| 2026-05-05 22:55 | 42.37592 | -71.00565 | 26 ft | 29 kts | 200° |
| 2026-05-05 22:55 | 42.36923 | -71.00891 | 26 ft | 121 kts | 200° |
| 2026-05-05 22:55 | 42.36353 | -71.01185 | 299 ft | 126 kts | 202° |
| 2026-05-05 22:55 | 42.35565 | -71.01567 | 1045 ft | 124 kts | 201° |
| 2026-05-05 22:56 | 42.34626 | -71.01985 | 1272 ft | 153 kts | 201° |
| 2026-05-05 22:56 | 42.33569 | -71.02060 | 1957 ft | 171 kts | 167° |
| 2026-05-05 22:56 | 42.32596 | -71.00867 | 2206 ft | 214 kts | 129° |
| 2026-05-05 22:56 | 42.31769 | -70.99123 | 2575 ft | 224 kts | 132° |
| 2026-05-05 22:57 | 42.31009 | -70.97226 | 3016 ft | 241 kts | 107° |
| 2026-05-05 22:57 | 42.31126 | -70.94923 | 3390 ft | 257 kts | 77° |
| 2026-05-05 22:57 | 42.31566 | -70.92517 | 3701 ft | 269 kts | 78° |
| 2026-05-05 22:57 | 42.31982 | -70.90043 | 4204 ft | 270 kts | 78° |
| 2026-05-05 22:58 | 42.32379 | -70.87556 | 4748 ft | 272 kts | 78° |
| 2026-05-05 22:58 | 42.32767 | -70.85037 | 5207 ft | 276 kts | 78° |
| 2026-05-05 22:58 | 42.33162 | -70.82418 | 5445 ft | 293 kts | 78° |
| 2026-05-05 22:58 | 42.33574 | -70.79667 | 5900 ft | 303 kts | 77° |
| 2026-05-05 22:59 | 42.34274 | -70.77012 | 6615 ft | 298 kts | 53° |
| 2026-05-05 22:59 | 42.35682 | -70.75038 | 7349 ft | 288 kts | 28° |
| 2026-05-05 22:59 | 42.37470 | -70.73932 | 8044 ft | 281 kts | 12° |
| 2026-05-05 22:59 | 42.39343 | -70.73161 | 8769 ft | 281 kts | 11° |
| 2026-05-05 23:00 | 42.43093 | -70.71639 | 10129 ft | 283 kts | 9° |
| 2026-05-05 23:00 | 42.45037 | -70.71436 | 10346 ft | 290 kts | 345° |
| 2026-05-05 23:00 | 42.46975 | -70.72331 | 10529 ft | 302 kts | 331° |
| 2026-05-05 23:01 | 42.48920 | -70.73632 | 10672 ft | 321 kts | 330° |
| 2026-05-05 23:01 | 42.50976 | -70.75014 | 10840 ft | 338 kts | 330° |
| 2026-05-05 23:01 | 42.53026 | -70.76624 | 11216 ft | 343 kts | 318° |
| 2026-05-05 23:01 | 42.54641 | -70.78990 | 11762 ft | 341 kts | 303° |
| 2026-05-05 23:02 | 42.55964 | -70.81649 | 12471 ft | 342 kts | 301° |
| 2026-05-05 23:02 | 42.57267 | -70.84378 | 12928 ft | 348 kts | 301° |
| 2026-05-05 23:02 | 42.58591 | -70.87164 | 13459 ft | 353 kts | 300° |
| 2026-05-05 23:02 | 42.59933 | -70.89972 | 13979 ft | 356 kts | 301° |
| 2026-05-05 23:03 | 42.61293 | -70.92796 | 14540 ft | 357 kts | 301° |
| 2026-05-05 23:03 | 42.62661 | -70.95622 | 15121 ft | 358 kts | 301° |
| 2026-05-05 23:03 | 42.64020 | -70.98422 | 15644 ft | 360 kts | 301° |
| 2026-05-05 23:03 | 42.65404 | -71.01273 | 16159 ft | 363 kts | 301° |
| 2026-05-05 23:04 | 42.66799 | -71.04144 | 16667 ft | 365 kts | 301° |
| 2026-05-05 23:04 | 42.68203 | -71.07034 | 17178 ft | 367 kts | 301° |
| 2026-05-05 23:04 | 42.69614 | -71.09943 | 17689 ft | 369 kts | 301° |
| 2026-05-05 23:04 | 42.71030 | -71.12865 | 18173 ft | 371 kts | 301° |
| 2026-05-05 23:05 | 42.72459 | -71.15817 | 18612 ft | 374 kts | 301° |
| 2026-05-05 23:05 | 42.73892 | -71.18778 | 19048 ft | 376 kts | 301° |
| 2026-05-05 23:05 | 42.75332 | -71.21758 | 19496 ft | 378 kts | 301° |
| 2026-05-05 23:05 | 42.76780 | -71.24757 | 19909 ft | 380 kts | 302° |
| 2026-05-05 23:06 | 42.78333 | -71.27684 | 20298 ft | 385 kts | 311° |
| 2026-05-05 23:06 | 42.80370 | -71.30076 | 20721 ft | 389 kts | 320° |
| 2026-05-05 23:06 | 42.82535 | -71.32315 | 21051 ft | 393 kts | 320° |
| 2026-05-05 23:06 | 42.84736 | -71.34564 | 21367 ft | 397 kts | 320° |
| 2026-05-05 23:07 | 42.86956 | -71.36837 | 21726 ft | 399 kts | 320° |
| 2026-05-05 23:07 | 42.89179 | -71.39127 | 21749 ft | 403 kts | 320° |
| 2026-05-05 23:07 | 42.91435 | -71.41468 | 21829 ft | 412 kts | 320° |
| 2026-05-05 23:07 | 42.93737 | -71.43869 | 21932 ft | 420 kts | 320° |
| 2026-05-05 23:08 | 42.96081 | -71.46325 | 22089 ft | 427 kts | 320° |
| 2026-05-05 23:08 | 42.98441 | -71.48802 | 22339 ft | 430 kts | 320° |
| 2026-05-05 23:08 | 43.00818 | -71.51301 | 22649 ft | 432 kts | 320° |
| 2026-05-05 23:08 | 43.03206 | -71.53815 | 22995 ft | 433 kts | 320° |
| 2026-05-05 23:09 | 43.05597 | -71.56335 | 23349 ft | 434 kts | 320° |
| 2026-05-05 23:09 | 43.07984 | -71.58854 | 23691 ft | 434 kts | 320° |
| 2026-05-05 23:09 | 43.10339 | -71.61341 | 24075 ft | 432 kts | 320° |
| 2026-05-05 23:09 | 43.12714 | -71.63852 | 24530 ft | 429 kts | 320° |
| 2026-05-05 23:10 | 43.15071 | -71.66346 | 24985 ft | 426 kts | 320° |
| 2026-05-05 23:10 | 43.17410 | -71.68824 | 25462 ft | 423 kts | 320° |
| 2026-05-05 23:10 | 43.19728 | -71.71283 | 25922 ft | 420 kts | 320° |
| 2026-05-05 23:10 | 43.22039 | -71.73736 | 26343 ft | 418 kts | 320° |
| 2026-05-05 23:11 | 43.24335 | -71.76176 | 26762 ft | 416 kts | 320° |
| 2026-05-05 23:11 | 43.26616 | -71.78604 | 27231 ft | 414 kts | 320° |
| 2026-05-05 23:11 | 43.28885 | -71.81020 | 27710 ft | 411 kts | 320° |
| 2026-05-05 23:11 | 43.31134 | -71.83417 | 28174 ft | 408 kts | 320° |
| 2026-05-05 23:12 | 43.33377 | -71.85810 | 28617 ft | 406 kts | 320° |
| 2026-05-05 23:12 | 43.35572 | -71.88154 | 29082 ft | 403 kts | 320° |
| 2026-05-05 23:12 | 43.37785 | -71.90520 | 29529 ft | 401 kts | 320° |
| 2026-05-05 23:12 | 43.39982 | -71.92871 | 29758 ft | 401 kts | 320° |
| 2026-05-05 23:13 | 43.44408 | -71.97617 | 29760 ft | 403 kts | 320° |
| 2026-05-05 23:13 | 43.48824 | -72.02357 | 29777 ft | 400 kts | 319° |
| 2026-05-05 23:14 | 43.53205 | -72.07069 | 29785 ft | 399 kts | 319° |
| 2026-05-05 23:14 | 43.57568 | -72.11771 | 29781 ft | 397 kts | 319° |
| 2026-05-05 23:15 | 43.59753 | -72.14128 | 29613 ft | 402 kts | 319° |
| 2026-05-05 23:15 | 43.61943 | -72.16496 | 29290 ft | 407 kts | 319° |
| 2026-05-05 23:15 | 43.64170 | -72.18905 | 28933 ft | 406 kts | 319° |
| 2026-05-05 23:15 | 43.66398 | -72.21312 | 28563 ft | 407 kts | 319° |
| 2026-05-05 23:16 | 43.68637 | -72.23736 | 28244 ft | 408 kts | 319° |
| 2026-05-05 23:16 | 43.70873 | -72.26163 | 27922 ft | 410 kts | 319° |
| 2026-05-05 23:16 | 43.73121 | -72.28604 | 27600 ft | 411 kts | 319° |
| 2026-05-05 23:16 | 43.75374 | -72.31054 | 27276 ft | 413 kts | 319° |
| 2026-05-05 23:17 | 43.77635 | -72.33513 | 26964 ft | 415 kts | 319° |
| 2026-05-05 23:17 | 43.79909 | -72.35990 | 26655 ft | 417 kts | 319° |
| 2026-05-05 23:17 | 43.82195 | -72.38482 | 26350 ft | 420 kts | 319° |
| 2026-05-05 23:17 | 43.84495 | -72.40991 | 26044 ft | 422 kts | 319° |
| 2026-05-05 23:18 | 43.86809 | -72.43518 | 25760 ft | 424 kts | 319° |
| 2026-05-05 23:18 | 43.89128 | -72.46053 | 25460 ft | 426 kts | 319° |
| 2026-05-05 23:18 | 43.91461 | -72.48606 | 25184 ft | 427 kts | 318° |
| 2026-05-05 23:18 | 43.93765 | -72.51129 | 24886 ft | 428 kts | 318° |
| 2026-05-05 23:19 | 43.96105 | -72.53693 | 24610 ft | 428 kts | 318° |
| 2026-05-05 23:19 | 43.98441 | -72.56257 | 24320 ft | 427 kts | 318° |
| 2026-05-05 23:19 | 44.00765 | -72.58810 | 24035 ft | 425 kts | 318° |
| 2026-05-05 23:19 | 44.03083 | -72.61358 | 23757 ft | 423 kts | 318° |
| 2026-05-05 23:20 | 44.05389 | -72.63896 | 23479 ft | 422 kts | 318° |
| 2026-05-05 23:20 | 44.07689 | -72.66430 | 23165 ft | 420 kts | 317° |
| 2026-05-05 23:20 | 44.09975 | -72.68951 | 22832 ft | 418 kts | 317° |
| 2026-05-05 23:20 | 44.12223 | -72.71434 | 22510 ft | 417 kts | 317° |
| 2026-05-05 23:21 | 44.14488 | -72.73939 | 22189 ft | 415 kts | 317° |
| 2026-05-05 23:21 | 44.16747 | -72.76438 | 21869 ft | 413 kts | 317° |
| 2026-05-05 23:21 | 44.18993 | -72.78925 | 21562 ft | 412 kts | 317° |
| 2026-05-05 23:21 | 44.21229 | -72.81405 | 21236 ft | 410 kts | 317° |
| 2026-05-05 23:22 | 44.23457 | -72.83877 | 20926 ft | 408 kts | 317° |
| 2026-05-05 23:22 | 44.25674 | -72.86339 | 20619 ft | 406 kts | 317° |
| 2026-05-05 23:22 | 44.27880 | -72.88793 | 20299 ft | 405 kts | 317° |
| 2026-05-05 23:22 | 44.30080 | -72.91243 | 19972 ft | 403 kts | 317° |
| 2026-05-05 23:23 | 44.32267 | -72.93681 | 19675 ft | 402 kts | 316° |
| 2026-05-05 23:23 | 44.34449 | -72.96114 | 19378 ft | 400 kts | 316° |
| 2026-05-05 23:23 | 44.36621 | -72.98539 | 19080 ft | 399 kts | 316° |
| 2026-05-05 23:23 | 44.38789 | -73.00962 | 18795 ft | 398 kts | 316° |
| 2026-05-05 23:24 | 44.40917 | -73.03343 | 18506 ft | 396 kts | 316° |
| 2026-05-05 23:24 | 44.43065 | -73.05747 | 18230 ft | 395 kts | 316° |
| 2026-05-05 23:24 | 44.45204 | -73.08145 | 17938 ft | 393 kts | 316° |
| 2026-05-05 23:24 | 44.47333 | -73.10533 | 17615 ft | 392 kts | 316° |
| 2026-05-05 23:25 | 44.49457 | -73.12919 | 17289 ft | 390 kts | 316° |
| 2026-05-05 23:25 | 44.51576 | -73.15301 | 16969 ft | 389 kts | 316° |
| 2026-05-05 23:25 | 44.53681 | -73.17669 | 16661 ft | 387 kts | 316° |
| 2026-05-05 23:25 | 44.55771 | -73.20024 | 16349 ft | 385 kts | 316° |
| 2026-05-05 23:26 | 44.57855 | -73.22372 | 16041 ft | 383 kts | 316° |
| 2026-05-05 23:26 | 44.59929 | -73.24713 | 15733 ft | 381 kts | 315° |
| 2026-05-05 23:26 | 44.61992 | -73.27042 | 15427 ft | 379 kts | 315° |
| 2026-05-05 23:26 | 44.64041 | -73.29359 | 15126 ft | 377 kts | 315° |
| 2026-05-05 23:27 | 44.66081 | -73.31668 | 14830 ft | 376 kts | 315° |
| 2026-05-05 23:27 | 44.68110 | -73.33965 | 14538 ft | 374 kts | 315° |
| 2026-05-05 23:27 | 44.70110 | -73.36233 | 14254 ft | 373 kts | 315° |
| 2026-05-05 23:27 | 44.72128 | -73.38524 | 13965 ft | 371 kts | 315° |
| 2026-05-05 23:28 | 44.74133 | -73.40802 | 13683 ft | 370 kts | 315° |
| 2026-05-05 23:28 | 44.76124 | -73.43066 | 13383 ft | 368 kts | 315° |
| 2026-05-05 23:28 | 44.78113 | -73.45329 | 13063 ft | 367 kts | 315° |
| 2026-05-05 23:28 | 44.80095 | -73.47587 | 12740 ft | 365 kts | 315° |
| 2026-05-05 23:29 | 44.82071 | -73.49838 | 12427 ft | 364 kts | 315° |
| 2026-05-05 23:29 | 44.84091 | -73.51996 | 12104 ft | 368 kts | 322° |
| 2026-05-05 23:29 | 44.86414 | -73.53579 | 11801 ft | 374 kts | 333° |
| 2026-05-05 23:29 | 44.88948 | -73.54540 | 11490 ft | 382 kts | 345° |
| 2026-05-05 23:30 | 44.91605 | -73.54896 | 11195 ft | 383 kts | 349° |
| 2026-05-05 23:30 | 44.94233 | -73.55142 | 11011 ft | 384 kts | 349° |
| 2026-05-05 23:30 | 44.96905 | -73.55390 | 10972 ft | 384 kts | 349° |
| 2026-05-05 23:30 | 44.99562 | -73.55653 | 10956 ft | 381 kts | 349° |
| 2026-05-05 23:31 | 45.02211 | -73.55935 | 10780 ft | 382 kts | 348° |
| 2026-05-05 23:31 | 45.04842 | -73.56225 | 10496 ft | 373 kts | 348° |
| 2026-05-05 23:31 | 45.07386 | -73.56504 | 10329 ft | 359 kts | 348° |
| 2026-05-05 23:31 | 45.09837 | -73.56777 | 10178 ft | 347 kts | 348° |
| 2026-05-05 23:32 | 45.12211 | -73.57037 | 10028 ft | 336 kts | 347° |
| 2026-05-05 23:32 | 45.14516 | -73.57289 | 9901 ft | 325 kts | 347° |
| 2026-05-05 23:32 | 45.16721 | -73.57529 | 9892 ft | 310 kts | 347° |
| 2026-05-05 23:32 | 45.18830 | -73.57761 | 9836 ft | 298 kts | 346° |
| 2026-05-05 23:33 | 45.20856 | -73.57987 | 9742 ft | 287 kts | 346° |
| 2026-05-05 23:33 | 45.22832 | -73.58211 | 9462 ft | 284 kts | 346° |
| 2026-05-05 23:33 | 45.24776 | -73.58433 | 9111 ft | 284 kts | 346° |
| 2026-05-05 23:33 | 45.26745 | -73.58655 | 8760 ft | 283 kts | 346° |
| 2026-05-05 23:34 | 45.28698 | -73.58872 | 8460 ft | 280 kts | 346° |
| 2026-05-05 23:34 | 45.30612 | -73.59079 | 8365 ft | 270 kts | 346° |
| 2026-05-05 23:34 | 45.32442 | -73.59274 | 8335 ft | 256 kts | 345° |
| 2026-05-05 23:34 | 45.34171 | -73.59459 | 8314 ft | 242 kts | 345° |
| 2026-05-05 23:35 | 45.35804 | -73.59635 | 8207 ft | 233 kts | 343° |
| 2026-05-05 23:35 | 45.37429 | -73.59820 | 7805 ft | 236 kts | 344° |
| 2026-05-05 23:35 | 45.39085 | -73.59882 | 7437 ft | 247 kts | 2° |
| 2026-05-05 23:35 | 45.40684 | -73.58824 | 7175 ft | 259 kts | 28° |
| 2026-05-05 23:36 | 45.42163 | -73.57343 | 6837 ft | 261 kts | 27° |
| 2026-05-05 23:36 | 45.43652 | -73.55884 | 6570 ft | 258 kts | 27° |
| 2026-05-05 23:36 | 45.45116 | -73.54465 | 6282 ft | 258 kts | 27° |
| 2026-05-05 23:36 | 45.46600 | -73.53030 | 6018 ft | 256 kts | 27° |
| 2026-05-05 23:37 | 45.48063 | -73.51617 | 5758 ft | 253 kts | 27° |
| 2026-05-05 23:37 | 45.49515 | -73.50217 | 5472 ft | 251 kts | 27° |
| 2026-05-05 23:37 | 45.50961 | -73.48823 | 5157 ft | 251 kts | 28° |
| 2026-05-05 23:37 | 45.52400 | -73.47435 | 4894 ft | 248 kts | 28° |
| 2026-05-05 23:38 | 45.53827 | -73.46057 | 4595 ft | 248 kts | 29° |
| 2026-05-05 23:38 | 45.55256 | -73.44678 | 4326 ft | 246 kts | 30° |
| 2026-05-05 23:38 | 45.56655 | -73.43302 | 4018 ft | 245 kts | 34° |
| 2026-05-05 23:38 | 45.57954 | -73.41707 | 3715 ft | 247 kts | 39° |
| 2026-05-05 23:39 | 45.59207 | -73.40044 | 3457 ft | 245 kts | 38° |
| 2026-05-05 23:39 | 45.60467 | -73.38493 | 3384 ft | 241 kts | 37° |
| 2026-05-05 23:39 | 45.61762 | -73.36930 | 3357 ft | 245 kts | 37° |
| 2026-05-05 23:39 | 45.63068 | -73.35343 | 3365 ft | 248 kts | 38° |
| 2026-05-05 23:40 | 45.64436 | -73.33880 | 3324 ft | 242 kts | 18° |
| 2026-05-05 23:40 | 45.66008 | -73.33485 | 3344 ft | 222 kts | 344° |
| 2026-05-05 23:40 | 45.67449 | -73.34051 | 3353 ft | 212 kts | 333° |
| 2026-05-05 23:40 | 45.68816 | -73.34813 | 3339 ft | 207 kts | 324° |
| 2026-05-05 23:41 | 45.69803 | -73.36132 | 3337 ft | 186 kts | 288° |
| 2026-05-05 23:41 | 45.70070 | -73.37821 | 3367 ft | 172 kts | 271° |
| 2026-05-05 23:41 | 45.70144 | -73.39508 | 3338 ft | 167 kts | 266° |
| 2026-05-05 23:41 | 45.69867 | -73.41041 | 3358 ft | 155 kts | 244° |
| 2026-05-05 23:42 | 45.69376 | -73.42381 | 3339 ft | 148 kts | 243° |
| 2026-05-05 23:42 | 45.68885 | -73.43633 | 3355 ft | 140 kts | 239° |
| 2026-05-05 23:42 | 45.68309 | -73.44846 | 2938 ft | 161 kts | 238° |
| 2026-05-05 23:42 | 45.67652 | -73.46237 | 2607 ft | 171 kts | 238° |
| 2026-05-05 23:43 | 45.67185 | -73.47183 | 2472 ft | 174 kts | 235° |
| 2026-05-05 23:43 | 45.66441 | -73.48528 | 2296 ft | 176 kts | 232° |
| 2026-05-05 23:43 | 45.65646 | -73.49855 | 2163 ft | 175 kts | 232° |
| 2026-05-05 23:43 | 45.64849 | -73.51142 | 2131 ft | 170 kts | 230° |
| 2026-05-05 23:44 | 45.64024 | -73.52337 | 2066 ft | 168 kts | 227° |
| 2026-05-05 23:44 | 45.63192 | -73.53497 | 1960 ft | 166 kts | 227° |
| 2026-05-05 23:44 | 45.62083 | -73.55019 | 1804 ft | 166 kts | 227° |
| 2026-05-05 23:44 | 45.61516 | -73.55771 | 1783 ft | 163 kts | 226° |
| 2026-05-05 23:45 | 45.60665 | -73.56883 | 1566 ft | 169 kts | 225° |
| 2026-05-05 23:45 | 45.59802 | -73.58012 | 1433 ft | 170 kts | 226° |
| 2026-05-05 23:45 | 45.58923 | -73.59141 | 1321 ft | 171 kts | 225° |
| 2026-05-05 23:45 | 45.58036 | -73.60277 | 1252 ft | 167 kts | 225° |
| 2026-05-05 23:46 | 45.57180 | -73.61336 | 1265 ft | 164 kts | 225° |
| 2026-05-05 23:46 | 45.56349 | -73.62381 | 1243 ft | 155 kts | 226° |
| 2026-05-05 23:46 | 45.55568 | -73.63323 | 1223 ft | 139 kts | 226° |
| 2026-05-05 23:46 | 45.54886 | -73.64203 | 1206 ft | 126 kts | 227° |
| 2026-05-05 23:47 | 45.54287 | -73.65124 | 950 ft | 127 kts | 234° |
| 2026-05-05 23:47 | 45.53760 | -73.66110 | 801 ft | 123 kts | 237° |
| 2026-05-05 23:47 | 45.53210 | -73.67181 | 781 ft | 137 kts | 234° |
| 2026-05-05 23:47 | 45.52472 | -73.68210 | 947 ft | 160 kts | 225° |
| 2026-05-05 23:48 | 45.51610 | -73.69210 | 946 ft | 161 kts | 224° |
| 2026-05-05 23:48 | 45.50783 | -73.70259 | 846 ft | 152 kts | 227° |
| 2026-05-05 23:48 | 45.50038 | -73.71256 | 550 ft | 141 kts | 226° |
| 2026-05-05 23:48 | 45.49363 | -73.72177 | 336 ft | 126 kts | 227° |
| 2026-05-05 23:49 | 45.48714 | -73.73014 | 290 ft | 131 kts | 228° |
| 2026-05-05 23:49 | 45.48018 | -73.73902 | 639 ft | 132 kts | 226° |
| 2026-05-05 23:49 | 45.47359 | -73.74694 | 1208 ft | 122 kts | 224° |
| 2026-05-05 23:49 | 45.46689 | -73.75534 | 1461 ft | 136 kts | 223° |
| 2026-05-05 23:50 | 45.45984 | -73.76516 | 1695 ft | 148 kts | 238° |
| 2026-05-05 23:50 | 45.45279 | -73.77671 | 1974 ft | 165 kts | 229° |
| 2026-05-05 23:50 | 45.44391 | -73.78878 | 2187 ft | 187 kts | 227° |
| 2026-05-05 23:50 | 45.43384 | -73.80223 | 2429 ft | 207 kts | 226° |
| 2026-05-05 23:51 | 45.42308 | -73.81644 | 2891 ft | 211 kts | 226° |
| 2026-05-05 23:51 | 45.41154 | -73.83083 | 2962 ft | 232 kts | 224° |
| 2026-05-05 23:51 | 45.39966 | -73.84676 | 2975 ft | 236 kts | 235° |
| 2026-05-05 23:51 | 45.39194 | -73.86719 | 2967 ft | 234 kts | 256° |
| 2026-05-05 23:52 | 45.38994 | -73.88963 | 2976 ft | 224 kts | 260° |
| 2026-05-05 23:52 | 45.39005 | -73.91109 | 2961 ft | 215 kts | 282° |
| 2026-05-05 23:52 | 45.39721 | -73.92959 | 2967 ft | 219 kts | 309° |
| 2026-05-05 23:52 | 45.41093 | -73.94026 | 2982 ft | 237 kts | 342° |
| 2026-05-05 23:53 | 45.42796 | -73.93923 | 2982 ft | 259 kts | 13° |
| 2026-05-05 23:53 | 45.44390 | -73.92638 | 2980 ft | 269 kts | 33° |
| 2026-05-05 23:53 | 45.45860 | -73.90934 | 3015 ft | 287 kts | 36° |
| 2026-05-05 23:53 | 45.47443 | -73.89065 | 2988 ft | 294 kts | 36° |
| 2026-05-05 23:54 | 45.48979 | -73.87243 | 2976 ft | 288 kts | 36° |
| 2026-05-05 23:54 | 45.50511 | -73.85416 | 2962 ft | 286 kts | 37° |
| 2026-05-05 23:54 | 45.52040 | -73.83606 | 2974 ft | 287 kts | 37° |
| 2026-05-05 23:54 | 45.53548 | -73.81723 | 2974 ft | 287 kts | 39° |
| 2026-05-05 23:55 | 45.55003 | -73.79837 | 2963 ft | 275 kts | 39° |
| 2026-05-05 23:55 | 45.56379 | -73.78043 | 2949 ft | 261 kts | 39° |
| 2026-05-05 23:55 | 45.57674 | -73.76338 | 2939 ft | 246 kts | 39° |
| 2026-05-05 23:55 | 45.58914 | -73.74683 | 2971 ft | 245 kts | 41° |
| 2026-05-05 23:56 | 45.60147 | -73.72991 | 2979 ft | 246 kts | 41° |
| 2026-05-05 23:56 | 45.61362 | -73.71284 | 2967 ft | 244 kts | 41° |
| 2026-05-05 23:56 | 45.62570 | -73.69591 | 2969 ft | 242 kts | 41° |
| 2026-05-05 23:56 | 45.63769 | -73.67918 | 2956 ft | 239 kts | 41° |
| 2026-05-05 23:57 | 45.64812 | -73.66079 | 2823 ft | 240 kts | 65° |
| 2026-05-05 23:57 | 45.65294 | -73.63857 | 2520 ft | 237 kts | 92° |
| 2026-05-05 23:57 | 45.64929 | -73.61679 | 2456 ft | 220 kts | 129° |
| 2026-05-05 23:57 | 45.63838 | -73.60243 | 2428 ft | 212 kts | 165° |
| 2026-05-05 23:58 | 45.62436 | -73.59802 | 2413 ft | 204 kts | 184° |
| 2026-05-05 23:58 | 45.61032 | -73.59824 | 2369 ft | 200 kts | 191° |
| 2026-05-05 23:58 | 45.59652 | -73.59983 | 2365 ft | 197 kts | 200° |
| 2026-05-05 23:58 | 45.58492 | -73.60852 | 2422 ft | 187 kts | 219° |
| 2026-05-05 23:59 | 45.57429 | -73.61924 | 2406 ft | 180 kts | 220° |
| 2026-05-05 23:59 | 45.56496 | -73.62916 | 2379 ft | 153 kts | 225° |
| 2026-05-05 23:59 | 45.55757 | -73.63836 | 2429 ft | 132 kts | 227° |
| 2026-05-05 23:59 | 45.55033 | -73.64790 | 2395 ft | 151 kts | 226° |
| 2026-05-06 00:00 | 45.54221 | -73.65823 | 2019 ft | 156 kts | 226° |
| 2026-05-06 00:00 | 45.53406 | -73.66808 | 1587 ft | 153 kts | 223° |
| 2026-05-06 00:00 | 45.52609 | -73.67763 | 1295 ft | 152 kts | 231° |
| 2026-05-06 00:00 | 45.51878 | -73.68854 | 1006 ft | 152 kts | 229° |
| 2026-05-06 00:01 | 45.51116 | -73.69894 | 817 ft | 152 kts | 227° |
| 2026-05-06 00:01 | 45.50322 | -73.70835 | 667 ft | 145 kts | 223° |
| 2026-05-06 00:01 | 45.49615 | -73.71810 | 565 ft | 140 kts | 229° |
| 2026-05-06 00:01 | 45.48883 | -73.72751 | 443 ft | 143 kts | 228° |
| 2026-05-06 00:02 | 45.48173 | -73.73756 | 238 ft | 145 kts | 228° |
| 2026-05-06 00:02 | 45.47428 | -73.74742 | 111 ft | 142 kts | 233° |
| 2026-05-06 00:02 | 45.46885 | -73.75482 | 106 ft | 47 kts | 215° |
| 2026-05-06 00:02 | 45.46711 | -73.75592 | 110 ft | 25 kts | 196° |
| 2026-05-06 00:03 | 45.46574 | -73.75635 | 110 ft | 12 kts | 200° |
| 2026-05-06 00:03 | 45.46496 | -73.75664 | 110 ft | 11 kts | 192° |
| 2026-05-06 00:03 | 45.46449 | -73.75679 | 109 ft | 0 kts | 192° |
| 2026-05-06 00:04 | 45.46448 | -73.75679 | 109 ft | 0 kts | 192° |